Time;durP1;ratioP1;P1;durP2;ratioP2;P2;SDS_P1;SDS_P2;PMS_P1;PMS_P2;Temp;Humidity;BMP_temperature;BMP_pressure;BME280_temperature;BME280_humidity;BME280_pressure;Samples;Min_cycle;Max_cycle;Signal;HPM_P1;HPM_P2
2022/07/01 00:01:42;;;;;;;6.35;5.78;;;26.40;50.80;;;24.53;52.75;100789.38;12242985;19;20014;-81
2022/07/01 00:05:43;;;;;;;5.97;5.47;;;26.20;50.70;;;24.56;52.78;100799.72;12242340;19;20021;-81
2022/07/01 00:09:45;;;;;;;7.35;6.68;;;26.40;50.90;;;24.43;52.82;100776.19;12244388;19;20014;-81
2022/07/01 00:13:46;;;;;;;7.10;6.50;;;26.20;50.90;;;24.54;53.06;100803.56;12243918;19;20018;-81
2022/07/01 00:17:48;;;;;;;7.30;6.60;;;26.20;50.90;;;24.55;52.95;100798.06;12245131;19;20038;-81
2022/07/01 00:21:51;;;;;;;6.47;5.95;;;26.10;50.90;;;24.48;53.16;100792.56;12245407;19;20018;-81
2022/07/01 00:25:53;;;;;;;6.63;6.03;;;26.10;50.90;;;24.37;53.28;100792.09;12243330;19;20022;-81
2022/07/01 00:29:54;;;;;;;7.35;6.65;;;26.30;51.20;;;24.30;52.96;100791.94;12235316;19;20014;-81
2022/07/01 00:33:56;;;;;;;7.43;6.18;;;26.20;51.10;;;23.94;53.52;100735.53;12240884;19;20411;-81
2022/07/01 00:37:58;;;;;;;6.72;5.95;;;26.00;51.00;;;24.07;52.96;100754.50;12243375;19;20022;-81
2022/07/01 00:42:01;;;;;;;7.72;7.07;;;25.90;51.20;;;24.12;53.45;100773.50;12243106;19;20017;-81
2022/07/01 00:46:03;;;;;;;7.78;7.03;;;25.90;51.60;;;24.13;53.49;100774.34;12243706;19;20367;-81
2022/07/01 00:50:11;;;;;;;7.70;7.00;;;26.00;51.60;;;24.09;53.79;100755.19;12239344;19;20035;-81
2022/07/01 00:54:14;;;;;;;7.90;7.10;;;25.80;51.70;;;24.07;53.54;100751.84;12246036;19;20010;-81
2022/07/01 00:58:16;;;;;;;7.55;6.85;;;25.80;51.70;;;24.04;53.81;100762.88;12239769;19;20472;-81
2022/07/01 01:02:17;;;;;;;7.78;7.07;;;25.80;51.80;;;23.85;53.70;100726.75;12244225;19;20527;-81
2022/07/01 01:06:19;;;;;;;7.85;7.05;;;25.80;51.80;;;24.13;54.02;100777.00;12244689;19;20015;-81
2022/07/01 01:10:23;;;;;;;8.45;7.65;;;25.70;51.80;;;23.98;53.79;100759.06;12239671;19;20010;-81
2022/07/01 01:14:26;;;;;;;8.98;8.00;;;25.70;51.90;;;24.00;53.89;100773.03;12242670;19;20015;-81
2022/07/01 01:18:28;;;;;;;9.13;8.23;;;26.00;52.10;;;24.01;53.95;100766.72;12239788;19;20550;-82
2022/07/01 01:22:30;;;;;;;8.65;7.80;;;25.70;52.10;;;23.92;54.02;100769.56;12243755;19;20021;-82
2022/07/01 01:26:31;;;;;;;8.70;7.90;;;25.90;52.40;;;23.97;54.20;100777.88;12240033;19;19999;-82
2022/07/01 01:30:33;;;;;;;10.60;8.23;;;25.60;52.20;;;23.99;54.15;100781.22;12239364;19;20026;-81
2022/07/01 01:34:37;;;;;;;8.25;7.45;;;25.60;52.20;;;23.90;54.45;100769.75;12240239;19;20021;-82
2022/07/01 01:38:39;;;;;;;8.82;7.93;;;25.80;52.30;;;23.89;54.40;100753.91;12240442;19;20532;-82
2022/07/01 01:42:43;;;;;;;8.50;7.70;;;25.60;52.20;;;23.77;54.53;100742.78;12240668;19;20027;-81
2022/07/01 01:46:45;;;;;;;8.90;8.05;;;25.50;52.20;;;23.91;54.31;100762.56;12238752;19;20010;-81
2022/07/01 01:50:47;;;;;;;8.57;7.32;;;25.50;52.20;;;23.78;54.57;100739.91;12229316;19;20018;-81
2022/07/01 01:54:48;;;;;;;8.30;7.47;;;25.50;52.30;;;23.62;54.56;100716.75;12241645;19;20011;-81
2022/07/01 01:58:51;;;;;;;8.25;7.45;;;25.50;52.40;;;23.66;54.62;100732.44;12234763;19;20010;-81
2022/07/01 02:02:52;;;;;;;8.15;7.13;;;25.40;52.20;;;23.67;54.26;100736.75;12241590;19;20019;-81
2022/07/01 02:06:54;;;;;;;8.40;7.60;;;25.40;52.30;;;23.63;54.67;100744.28;12238737;19;20014;-81
2022/07/01 02:10:56;;;;;;;8.60;7.80;;;25.30;52.30;;;23.40;54.89;100712.13;12240068;19;20002;-81
2022/07/01 02:14:58;;;;;;;8.57;7.78;;;25.50;52.50;;;23.42;55.02;100729.63;12239279;19;20014;-81
2022/07/01 02:19:00;;;;;;;8.95;8.05;;;25.20;52.40;;;23.30;55.11;100720.28;12235602;19;20018;-81
2022/07/01 02:23:01;;;;;;;9.95;8.95;;;25.50;52.90;;;23.27;55.07;100730.47;12238751;19;20010;-81
2022/07/01 02:27:03;;;;;;;9.38;8.48;;;25.10;53.00;;;23.37;55.45;100753.28;12241023;19;20018;-81
2022/07/01 02:31:05;;;;;;;10.20;9.13;;;25.10;53.00;;;23.35;55.35;100751.78;12237927;19;20023;-81
2022/07/01 02:35:07;;;;;;;9.70;8.77;;;25.00;53.40;;;23.35;55.60;100751.78;12249996;19;20023;-81
2022/07/01 02:39:09;;;;;;;10.18;9.18;;;25.00;53.70;;;23.32;55.78;100738.78;12246332;19;20023;-81
2022/07/01 02:43:11;;;;;;;10.40;9.40;;;25.00;53.90;;;23.31;55.90;100742.47;12251532;19;20041;-83
2022/07/01 02:47:13;;;;;;;10.75;9.65;;;25.00;53.90;;;23.38;55.51;100754.94;12246122;19;20017;-81
2022/07/01 02:51:14;;;;;;;10.70;9.63;;;24.90;54.10;;;23.40;55.69;100754.78;12247139;19;20007;-81
2022/07/01 02:55:16;;;;;;;10.88;9.73;;;25.00;54.20;;;23.41;55.63;100740.44;12251327;19;20022;-81
2022/07/01 02:59:17;;;;;;;12.05;10.77;;;25.00;54.20;;;23.45;55.98;100746.28;12245135;19;20705;-81
2022/07/01 03:03:20;;;;;;;10.98;9.77;;;25.00;54.10;;;23.41;55.88;100751.97;12246724;19;20578;-82
2022/07/01 03:07:22;;;;;;;11.07;9.98;;;25.10;54.00;;;23.39;55.89;100735.28;12250158;19;20656;-81
2022/07/01 03:11:23;;;;;;;10.48;9.38;;;25.10;54.00;;;23.52;55.80;100752.59;12244881;19;20007;-81
2022/07/01 03:15:25;;;;;;;10.77;9.68;;;25.30;54.20;;;23.49;56.13;100750.28;12246448;19;20449;-81
2022/07/01 03:19:27;;;;;;;10.38;9.27;;;25.10;54.00;;;23.50;56.24;100757.28;12247384;19;20018;-81
2022/07/01 03:23:29;;;;;;;10.15;9.07;;;25.40;54.00;;;23.37;55.68;100737.28;12247424;19;20043;-81
2022/07/01 03:27:33;;;;;;;10.73;8.98;;;25.10;53.90;;;23.49;56.02;100752.94;12249215;19;20041;-81
2022/07/01 03:31:35;;;;;;;10.18;9.18;;;25.10;54.00;;;23.20;55.93;100706.34;12242939;19;20507;-81
2022/07/01 03:35:39;;;;;;;9.93;8.93;;;25.10;54.10;;;23.52;56.31;100757.94;12248352;19;20023;-81
2022/07/01 03:39:41;;;;;;;11.25;9.55;;;25.10;54.20;;;23.54;56.28;100758.59;12241613;19;20019;-81
2022/07/01 03:43:42;;;;;;;12.93;9.48;;;25.10;54.20;;;23.42;56.39;100758.94;12247853;19;20484;-81
2022/07/01 03:47:49;;;;;;;10.50;9.40;;;25.10;54.20;;;23.38;56.41;100752.28;12246970;19;20011;-81
2022/07/01 03:51:51;;;;;;;10.90;9.48;;;25.10;54.30;;;23.48;56.24;100757.44;12241705;19;20014;-81
2022/07/01 03:55:53;;;;;;;11.23;10.05;;;25.20;54.20;;;23.51;56.28;100764.25;12246329;19;20195;-81
2022/07/01 03:59:55;;;;;;;10.93;9.73;;;25.10;54.30;;;23.50;56.63;100755.44;12240206;19;20014;-81
2022/07/01 04:03:57;;;;;;;12.02;9.65;;;25.20;54.40;;;23.43;56.48;100759.78;12246943;19;20011;-81
2022/07/01 04:07:59;;;;;;;10.90;9.75;;;25.20;54.70;;;23.50;56.18;100767.94;12237353;19;20480;-82
2022/07/01 04:12:01;;;;;;;10.50;9.30;;;25.30;54.40;;;23.54;56.62;100763.94;12247073;19;20465;-82
2022/07/01 04:16:04;;;;;;;11.02;9.93;;;25.20;54.50;;;23.57;56.36;100771.59;12241521;19;20015;-81
2022/07/01 04:20:06;;;;;;;10.52;9.43;;;25.20;54.70;;;23.54;56.68;100761.25;12241687;19;20086;-81
2022/07/01 04:24:08;;;;;;;11.00;9.88;;;25.20;54.70;;;23.52;56.72;100761.44;12242230;19;20050;-81
2022/07/01 04:28:10;;;;;;;10.80;9.70;;;25.30;54.90;;;23.51;56.67;100750.94;12241518;19;20022;-82
2022/07/01 04:32:12;;;;;;;11.95;10.75;;;25.20;54.90;;;23.58;56.85;100760.75;12241946;19;20018;-81
2022/07/01 04:36:14;;;;;;;11.57;10.38;;;25.30;55.20;;;23.61;57.11;100760.44;12236701;19;20049;-81
2022/07/01 04:40:16;;;;;;;11.50;10.30;;;25.30;55.40;;;23.73;57.06;100773.44;12234856;19;20013;-82
2022/07/01 04:44:19;;;;;;;12.57;11.32;;;25.50;55.50;;;23.62;57.45;100743.41;12236945;19;20046;-81
2022/07/01 04:48:21;;;;;;;13.35;11.95;;;25.40;55.60;;;23.88;57.44;100776.25;12237047;19;20011;-81
2022/07/01 04:52:22;;;;;;;12.02;10.80;;;25.40;55.60;;;23.95;57.34;100780.75;12237752;19;20405;-81
2022/07/01 04:56:26;;;;;;;12.90;11.52;;;25.50;55.80;;;24.02;57.25;100780.88;12235237;19;20015;-81
2022/07/01 05:00:30;;;;;;;12.40;11.02;;;25.60;55.90;;;24.17;57.41;100780.97;12234105;19;20018;-81
2022/07/01 05:04:32;;;;;;;12.85;11.25;;;25.60;56.00;;;24.26;57.40;100778.13;12235229;19;20022;-81
2022/07/01 05:08:36;;;;;;;16.75;11.48;;;25.80;56.00;;;24.28;57.30;100762.78;12231695;19;20018;-81
2022/07/01 05:12:37;;;;;;;14.00;12.02;;;25.90;56.00;;;24.48;57.45;100783.72;12235243;19;20024;-81
2022/07/01 05:16:39;;;;;;;12.93;11.65;;;25.90;56.00;;;24.58;56.97;100778.19;12236419;19;20078;-81
2022/07/01 05:25:01;;;;;;;11.82;10.63;;;26.10;56.00;;;24.71;57.22;100767.75;12237680;19;20388;-81
2022/07/01 05:29:03;;;;;;;11.50;10.40;;;26.20;55.90;;;24.73;57.13;100761.25;12233910;19;20491;-81
2022/07/01 05:33:05;;;;;;;13.30;11.90;;;26.30;56.00;;;25.04;57.28;100794.28;12237681;19;20018;-81
2022/07/01 05:37:07;;;;;;;13.18;11.82;;;26.40;56.00;;;25.09;57.11;100782.03;12232536;19;20657;-81
2022/07/01 05:41:09;;;;;;;12.88;11.57;;;26.50;56.00;;;25.25;57.55;100788.28;12233745;19;20010;-82
2022/07/01 05:45:11;;;;;;;13.18;11.75;;;26.60;56.20;;;25.26;57.20;100769.41;12233837;19;20516;-81
2022/07/01 05:49:12;;;;;;;13.48;11.30;;;26.70;56.10;;;25.59;57.50;100794.00;12226993;19;20101;-81
2022/07/01 05:53:14;;;;;;;11.63;10.43;;;26.90;56.40;;;25.67;57.17;100770.88;12235129;19;20026;-80
2022/07/01 05:57:16;;;;;;;11.93;10.63;;;27.00;56.10;;;25.97;57.39;100793.16;12231800;19;20022;-79
2022/07/01 06:01:17;;;;;;;11.65;10.32;;;27.20;56.30;;;26.12;57.05;100794.00;12223368;19;20544;-80
2022/07/01 06:05:19;;;;;;;10.82;9.82;;;27.40;56.40;;;26.25;56.69;100796.03;12227822;19;20366;-79
2022/07/01 06:09:21;;;;;;;11.75;10.48;;;27.60;56.00;;;26.42;56.71;100804.69;12234055;19;20014;-79
2022/07/01 06:13:23;;;;;;;11.35;10.25;;;27.70;55.80;;;26.64;56.39;100811.78;12232250;19;20034;-79
2022/07/01 06:17:25;;;;;;;11.70;10.57;;;27.90;55.60;;;26.73;56.57;100811.69;12225866;19;20466;-79
2022/07/01 06:21:27;;;;;;;10.40;9.30;;;28.00;55.30;;;26.75;56.42;100796.25;12221791;19;20025;-79
2022/07/01 06:25:29;;;;;;;11.43;10.27;;;28.20;55.50;;;27.14;56.39;100823.47;12225113;19;20093;-79
2022/07/01 06:29:31;;;;;;;12.77;10.95;;;28.50;55.40;;;27.37;55.97;100830.53;12232315;19;20015;-78
2022/07/01 06:33:33;;;;;;;10.20;9.20;;;28.60;55.00;;;27.45;55.54;100821.50;12231587;19;20010;-80
2022/07/01 06:37:35;;;;;;;10.57;9.48;;;29.00;54.90;;;27.43;55.71;100799.41;12228666;19;20018;-78
2022/07/01 06:41:38;;;;;;;9.73;8.82;;;28.90;54.60;;;27.73;55.77;100832.25;12229174;19;20074;-79
2022/07/01 06:45:39;;;;;;;11.68;9.98;;;29.10;54.50;;;27.69;55.54;100821.09;12231418;19;20010;-79
2022/07/01 06:49:41;;;;;;;11.60;9.95;;;29.20;54.20;;;27.56;55.64;100778.06;12233113;19;20010;-79
2022/07/01 06:53:44;;;;;;;10.77;9.73;;;29.20;54.00;;;27.88;55.33;100821.47;12232961;19;20040;-79
2022/07/01 06:57:46;;;;;;;9.43;8.63;;;29.30;53.90;;;27.88;55.50;100810.72;12232877;19;20011;-79
2022/07/01 07:01:49;;;;;;;10.02;9.05;;;29.30;53.90;;;27.87;55.32;100795.63;12228460;19;20045;-79
2022/07/01 07:05:52;;;;;;;11.25;10.15;;;29.50;53.90;;;28.08;55.38;100818.91;12232011;19;20745;-79
2022/07/01 07:09:55;;;;;;;10.77;9.65;;;29.50;53.70;;;28.08;55.18;100792.88;12227929;19;20097;-79
2022/07/01 07:13:57;;;;;;;10.90;9.90;;;29.60;53.70;;;28.41;55.06;100819.09;12240173;19;20042;-79
2022/07/01 07:17:59;;;;;;;11.52;10.40;;;29.70;53.70;;;28.57;54.80;100817.94;12240272;19;20042;-79
2022/07/01 07:22:01;;;;;;;11.02;10.02;;;30.00;53.70;;;28.63;54.74;100798.34;12245376;19;20026;-80
2022/07/01 07:26:03;;;;;;;11.52;10.30;;;30.00;53.40;;;28.73;54.56;100787.19;12241304;19;20018;-80
2022/07/01 07:30:05;;;;;;;11.02;10.02;;;30.10;53.30;;;29.02;54.19;100812.91;12239912;19;20014;-79
2022/07/01 07:34:07;;;;;;;11.63;10.35;;;30.30;53.30;;;28.79;53.97;100776.47;12241419;19;20010;-79
2022/07/01 07:38:10;;;;;;;11.95;10.80;;;30.40;52.80;;;29.06;53.97;100822.25;12243287;19;20018;-79
2022/07/01 07:42:11;;;;;;;13.27;11.07;;;30.40;52.80;;;29.20;54.31;100825.78;12242561;19;20415;-78
2022/07/01 07:46:14;;;;;;;11.38;10.23;;;30.60;52.90;;;29.12;54.16;100789.16;12242226;19;20014;-78
2022/07/01 07:50:16;;;;;;;11.65;10.50;;;30.60;52.80;;;29.48;53.93;100815.66;12239748;19;20086;-79
2022/07/01 07:54:18;;;;;;;13.27;10.50;;;30.80;52.50;;;29.44;53.49;100776.75;12242777;19;20026;-78
2022/07/01 07:58:20;;;;;;;11.20;10.10;;;30.90;52.40;;;29.70;53.17;100810.09;12239153;19;20018;-79
2022/07/01 08:02:21;;;;;;;11.13;9.98;;;31.10;52.10;;;29.80;53.40;100812.38;12242294;19;20544;-79
2022/07/01 08:06:23;;;;;;;11.88;10.43;;;31.20;51.80;;;29.87;52.80;100819.41;12239901;19;20060;-79
2022/07/01 08:10:25;;;;;;;12.27;10.88;;;31.30;51.50;;;29.78;52.81;100815.25;12239767;19;20078;-80
2022/07/01 08:14:26;;;;;;;11.20;10.00;;;31.30;51.30;;;29.86;52.59;100808.81;12239081;19;20021;-80
2022/07/01 08:18:28;;;;;;;12.07;10.90;;;31.30;51.20;;;29.83;52.55;100810.06;12237673;19;20025;-79
2022/07/01 08:22:30;;;;;;;13.95;10.50;;;31.40;51.00;;;29.88;52.45;100825.59;12240339;19;20018;-79
2022/07/01 08:26:32;;;;;;;11.68;10.45;;;31.30;50.70;;;29.78;52.37;100817.94;12239036;19;20082;-78
2022/07/01 08:30:34;;;;;;;12.77;11.45;;;31.30;50.70;;;29.54;52.67;100785.25;12236574;19;20089;-79
2022/07/01 08:34:36;;;;;;;10.98;9.93;;;31.30;50.80;;;29.67;52.35;100797.03;12237184;19;20010;-79
2022/07/01 08:38:38;;;;;;;11.95;10.60;;;31.30;50.70;;;29.87;52.13;100819.41;12237363;19;20106;-79
2022/07/01 08:42:39;;;;;;;12.05;9.95;;;31.30;50.40;;;29.78;52.03;100778.38;12238815;19;20018;-79
2022/07/01 08:46:41;;;;;;;11.45;10.43;;;31.30;50.60;;;30.05;51.87;100804.44;12238786;19;20017;-79
2022/07/01 08:50:43;;;;;;;11.43;10.18;;;31.40;50.70;;;30.24;51.81;100822.44;12237793;19;20010;-79
2022/07/01 08:54:44;;;;;;;11.15;10.02;;;31.50;50.50;;;30.26;51.74;100806.88;12238879;19;20021;-79
2022/07/01 08:58:49;;;;;;;11.00;9.90;;;31.60;50.20;;;30.32;51.52;100797.13;12236843;19;20015;-79
2022/07/01 09:02:55;;;;;;;;;;;31.80;50.20;;;30.60;51.72;100818.38;12238965;19;20015;-79
2022/07/01 09:07:05;;;;;;;;;;;31.90;50.80;;;30.57;51.64;100803.47;12240645;19;20261;-79
2022/07/01 09:11:24;;;;;;;8.85;7.95;;;32.00;50.70;;;30.64;51.15;100820.41;12235153;19;19966;-79
2022/07/01 09:15:29;;;;;;;12.60;8.88;;;32.00;49.20;;;30.64;51.16;100824.97;12236495;19;20025;-78
2022/07/01 09:19:36;;;;;;;9.48;8.57;;;32.00;49.20;;;30.56;50.96;100817.97;12234390;19;20022;-79
2022/07/01 09:23:39;;;;;;;9.45;8.13;;;32.30;49.20;;;30.55;50.89;100828.97;12235829;19;20014;-79
2022/07/01 09:27:41;;;;;;;11.10;9.63;;;32.00;48.80;;;30.54;50.57;100838.09;12238415;19;20034;-79
2022/07/01 09:31:49;;;;;;;8.60;7.75;;;32.00;48.40;;;30.23;50.14;100799.22;12233723;19;20023;-79
2022/07/01 09:35:53;;;;;;;8.75;7.55;;;32.00;47.90;;;30.48;50.06;100847.03;12235448;19;20018;-79
2022/07/01 09:39:57;;;;;;;8.45;7.65;;;31.90;47.90;;;30.39;49.83;100843.75;12233538;19;20014;-79
2022/07/01 09:44:09;;;;;;;8.57;7.68;;;31.90;47.60;;;30.30;50.03;100840.47;12237701;19;20021;-79
2022/07/01 09:48:11;;;;;;;8.88;8.00;;;31.80;47.60;;;30.12;49.90;100833.00;12232042;19;20018;-79
2022/07/01 09:52:13;;;;;;;7.47;5.60;;;31.90;47.40;;;29.80;49.55;100847.38;12240746;19;20039;-78
2022/07/01 09:56:15;;;;;;;4.30;3.55;;;31.70;46.90;;;29.60;49.65;100904.69;12233757;19;20018;-79
2022/07/01 10:00:17;;;;;;;3.80;2.40;;;31.50;46.50;;;29.11;49.97;100938.97;12234126;19;20028;-79
2022/07/01 10:04:19;;;;;;;2.42;1.85;;;31.20;46.30;;;28.41;49.94;100913.94;12235652;19;20010;-79
2022/07/01 10:08:30;;;;;;;1.90;1.40;;;30.90;46.10;;;28.18;50.04;100970.59;12234462;19;20039;-78
2022/07/01 10:12:46;;;;;;;2.63;1.42;;;30.40;46.30;;;27.70;50.19;100967.66;12236265;19;20038;-79
2022/07/01 10:16:48;;;;;;;5.13;1.00;;;30.00;46.60;;;27.39;50.40;100988.59;12235219;19;20090;-78
2022/07/01 10:20:52;;;;;;;2.67;1.05;;;29.60;46.50;;;26.96;50.53;100973.19;12231810;19;20015;-78
2022/07/01 10:24:56;;;;;;;0.90;0.90;;;29.20;46.70;;;26.88;50.81;101003.59;12232859;19;20015;-78
2022/07/01 10:28:57;;;;;;;0.80;0.80;;;28.90;47.20;;;26.59;50.56;101019.66;12233859;19;20022;-78
2022/07/01 10:33:01;;;;;;;1.20;0.70;;;28.60;47.30;;;26.39;51.20;101019.31;12231826;19;20019;-78
2022/07/01 10:37:10;;;;;;;0.50;0.50;;;28.40;47.40;;;26.12;50.77;100996.63;12233247;19;20558;-78
2022/07/01 10:41:24;;;;;;;0.40;0.40;;;28.10;47.50;;;26.24;51.18;101019.25;12230377;19;20015;-78
2022/07/01 10:45:26;;;;;;;0.47;0.47;;;27.90;47.80;;;26.23;50.77;101025.63;12232261;19;20626;-78
2022/07/01 10:49:37;;;;;;;0.50;0.50;;;27.90;47.90;;;26.17;51.14;101042.44;12239878;19;20096;-78
2022/07/01 10:53:48;;;;;;;0.70;0.70;;;27.80;48.00;;;25.98;51.15;101025.84;12247568;19;20014;-78
2022/07/01 10:57:54;;;;;;;1.10;0.60;;;27.70;47.80;;;25.77;50.91;101047.00;12241948;19;20022;-78
2022/07/01 11:01:56;;;;;;;2.58;0.70;;;27.60;47.90;;;25.71;50.77;101061.09;12246248;19;20014;-79
2022/07/01 11:05:57;;;;;;;0.70;0.70;;;27.50;48.00;;;25.44;51.32;101055.22;12242421;19;20377;-78
2022/07/01 11:10:01;;;;;;;0.60;0.60;;;27.30;47.90;;;25.20;51.32;101049.97;12242846;19;20376;-79
2022/07/01 11:14:03;;;;;;;0.50;0.50;;;27.30;48.10;;;24.85;51.36;101015.44;12242594;19;20014;-79
2022/07/01 11:18:05;;;;;;;1.13;0.50;;;27.00;48.10;;;24.89;51.29;101061.34;12242542;19;20014;-78
2022/07/01 11:22:07;;;;;;;1.08;0.50;;;26.80;48.10;;;24.63;51.31;101035.72;12243436;19;20018;-79
2022/07/01 11:26:24;;;;;;;0.40;0.40;;;26.60;48.40;;;24.55;51.79;101033.03;12243828;19;20044;-78
2022/07/01 11:30:27;;;;;;;0.50;0.50;;;26.40;48.40;;;24.33;51.52;101015.00;12240688;19;20657;-78
2022/07/01 11:34:29;;;;;;;0.30;0.30;;;26.30;48.60;;;24.42;51.62;101032.69;12240778;19;20015;-78
2022/07/01 11:42:51;;;;;;;0.75;0.40;;;26.00;48.80;;;24.19;51.81;101028.00;12242648;19;20490;-78
2022/07/01 11:46:53;;;;;;;1.80;0.40;;;25.90;48.90;;;24.03;51.94;101033.31;12243970;19;20030;-78
2022/07/01 11:50:55;;;;;;;0.30;0.30;;;25.90;48.70;;;23.92;52.02;101047.81;12236968;19;20031;-78
2022/07/01 11:54:57;;;;;;;0.20;0.20;;;26.00;49.10;;;23.61;51.95;100995.06;12241622;19;20014;-78
2022/07/01 11:59:01;;;;;;;0.40;0.30;;;25.60;49.00;;;23.67;52.42;100996.22;12236243;19;20014;-78
2022/07/01 12:03:03;;;;;;;0.20;0.20;;;25.60;49.20;;;23.60;52.00;100973.88;12244514;19;20014;-78
2022/07/01 12:07:06;;;;;;;0.38;0.38;;;25.50;49.20;;;23.80;52.44;101001.13;12238508;19;20033;-78
2022/07/01 12:11:07;;;;;;;0.40;0.40;;;25.50;49.30;;;23.82;52.61;101007.13;12236122;19;20658;-79
2022/07/01 12:15:14;;;;;;;1.17;0.50;;;25.50;50.00;;;24.02;52.20;101010.31;12242067;19;20011;-78
2022/07/01 12:19:15;;;;;;;0.30;0.30;;;25.50;50.00;;;24.17;51.95;101021.16;12237262;19;20081;-79
2022/07/01 12:23:17;;;;;;;0.40;0.40;;;25.70;50.10;;;24.04;52.28;100982.47;12239102;19;20022;-78
2022/07/01 12:27:23;;;;;;;0.30;0.30;;;25.90;50.10;;;24.26;52.58;101034.34;12237279;19;20022;-78
2022/07/01 12:31:24;;;;;;;0.30;0.30;;;25.80;49.80;;;24.06;52.55;101017.84;12225073;19;20043;-78
2022/07/01 12:35:36;;;;;;;0.60;0.60;;;25.80;49.60;;;24.01;52.59;101025.50;12234620;19;20052;-80
2022/07/01 12:39:46;;;;;;;0.65;0.60;;;25.70;49.80;;;24.01;52.49;101024.69;12234962;19;20053;-77
2022/07/01 12:43:48;;;;;;;1.27;0.65;;;25.70;50.00;;;24.10;52.63;101044.19;12238447;19;20487;-77
2022/07/01 12:47:54;;;;;;;2.85;0.70;;;25.60;50.10;;;24.14;52.72;101056.19;12240461;19;20010;-79
2022/07/01 12:51:55;;;;;;;0.95;0.95;;;25.60;50.10;;;23.89;52.49;101025.97;12239379;19;20021;-78
2022/07/01 12:55:58;;;;;;;1.00;0.90;;;25.70;49.90;;;24.06;52.52;101083.69;12239525;19;20025;-78
2022/07/01 12:59:59;;;;;;;0.88;0.88;;;25.70;49.80;;;24.04;52.45;101115.06;12208816;19;20488;-78
2022/07/01 13:04:01;;;;;;;0.93;0.80;;;25.70;49.90;;;23.93;52.91;101118.03;12219321;19;20379;-77
2022/07/01 13:08:08;;;;;;;0.77;0.77;;;25.60;49.90;;;23.95;52.87;101150.69;12220936;19;20532;-80
2022/07/01 13:12:09;;;;;;;1.00;1.00;;;25.60;49.80;;;23.93;52.65;101158.06;12214417;19;20367;-79
2022/07/01 13:16:11;;;;;;;2.75;1.15;;;25.60;49.80;;;23.71;52.89;101132.72;12225046;19;20526;-79
2022/07/01 13:20:14;;;;;;;1.55;1.10;;;25.40;49.80;;;23.49;53.05;101108.31;12220620;19;20272;-78
2022/07/01 13:24:15;;;;;;;4.60;1.40;;;25.50;49.90;;;23.60;52.84;101142.72;12226036;19;20118;-78
2022/07/01 13:28:17;;;;;;;2.10;1.50;;;25.40;49.70;;;23.55;53.08;101169.03;12223489;19;20018;-78
2022/07/01 13:32:19;;;;;;;1.30;1.20;;;25.50;49.80;;;23.26;53.24;101126.69;12222914;19;20026;-79
2022/07/01 13:36:21;;;;;;;1.50;1.40;;;25.20;49.70;;;23.24;52.92;101151.84;12224987;19;20019;-80
2022/07/01 13:40:22;;;;;;;1.60;1.50;;;25.10;49.80;;;23.21;53.29;101168.13;12220363;19;20032;-79
2022/07/01 13:44:24;;;;;;;2.63;1.65;;;25.00;49.80;;;23.24;52.92;101187.31;12223485;19;20090;-79
2022/07/01 13:48:25;;;;;;;1.90;1.80;;;24.90;49.90;;;23.16;53.39;101192.56;12223305;19;20122;-79
2022/07/01 13:52:30;;;;;;;4.70;1.83;;;24.80;49.90;;;22.82;53.35;101158.69;12221773;19;20110;-79
2022/07/01 13:56:32;;;;;;;1.60;1.50;;;24.80;50.40;;;22.83;53.03;101173.66;12222125;19;20284;-79
2022/07/01 14:00:33;;;;;;;3.80;1.60;;;24.70;50.10;;;22.94;53.33;101201.88;12219627;19;20023;-79
2022/07/01 14:04:35;;;;;;;1.67;1.58;;;24.70;50.10;;;22.75;53.39;101217.03;12222967;19;20113;-79
2022/07/01 14:08:36;;;;;;;1.80;1.70;;;24.70;50.10;;;22.71;53.64;101228.97;12219684;19;20062;-79
2022/07/01 14:12:38;;;;;;;1.58;1.48;;;24.50;50.10;;;22.45;53.35;101178.28;12222153;19;20022;-78
2022/07/01 14:16:40;;;;;;;2.10;1.92;;;24.40;50.20;;;22.31;53.61;101158.38;12218911;19;20129;-79
2022/07/01 14:20:42;;;;;;;2.45;1.80;;;24.40;50.40;;;22.50;53.84;101185.84;12217775;19;20018;-79
2022/07/01 14:24:44;;;;;;;2.08;1.60;;;24.30;50.40;;;22.43;53.70;101182.09;12218364;19;20041;-79
2022/07/01 14:28:45;;;;;;;2.13;1.90;;;24.20;50.60;;;22.30;53.65;101158.50;12217333;19;20039;-79
2022/07/01 14:32:46;;;;;;;1.60;1.50;;;24.10;50.50;;;22.32;53.75;101185.81;12219084;19;20025;-79
2022/07/01 14:36:48;;;;;;;1.80;1.70;;;24.10;50.60;;;22.24;53.49;101199.03;12219429;19;20592;-79
2022/07/01 14:40:50;;;;;;;2.33;2.05;;;24.00;50.50;;;22.25;53.73;101216.66;12218380;19;20737;-79
2022/07/01 14:44:53;;;;;;;3.05;2.08;;;23.90;50.60;;;22.13;53.79;101223.13;12218117;19;20036;-79
2022/07/01 14:48:55;;;;;;;1.83;1.63;;;23.90;50.80;;;22.12;54.26;101234.78;12219309;19;20018;-80
2022/07/01 14:52:56;;;;;;;1.70;1.27;;;23.90;50.70;;;22.10;54.32;101266.84;12219295;19;20119;-80
2022/07/01 14:56:58;;;;;;;1.10;1.10;;;23.80;51.10;;;22.03;54.09;101257.75;12220887;19;20023;-80
2022/07/01 15:01:00;;;;;;;1.33;1.25;;;23.80;51.60;;;21.72;54.05;101225.28;12216116;19;20025;-80
2022/07/01 15:05:02;;;;;;;1.13;1.08;;;23.70;51.10;;;21.94;54.39;101286.06;12219963;19;20011;-79
2022/07/01 15:09:03;;;;;;;1.08;1.00;;;23.70;51.20;;;21.94;54.43;101291.38;12215825;19;20022;-79
2022/07/01 15:13:05;;;;;;;1.30;1.30;;;23.60;51.20;;;21.81;54.47;101301.50;12219527;19;20018;-79
2022/07/01 15:17:07;;;;;;;1.30;1.20;;;23.80;51.40;;;21.63;54.64;101296.09;12218021;19;20015;-80
2022/07/01 15:21:09;;;;;;;1.00;1.00;;;23.80;51.30;;;21.65;54.34;101305.56;12214271;19;20106;-79
2022/07/01 15:25:11;;;;;;;1.27;1.00;;;23.40;51.30;;;21.48;54.74;101306.31;12216170;19;20018;-80
2022/07/01 15:29:13;;;;;;;1.05;0.95;;;23.40;51.20;;;21.56;54.46;101341.00;12217880;19;20011;-79
2022/07/01 15:33:15;;;;;;;1.10;1.10;;;23.30;51.10;;;21.07;54.37;101279.03;12222559;19;20022;-79
2022/07/01 15:37:16;;;;;;;0.93;0.93;;;23.40;51.20;;;21.26;54.46;101320.72;12219209;19;20019;-78
2022/07/01 15:41:18;;;;;;;2.60;1.13;;;23.20;51.30;;;21.23;55.00;101328.97;12223572;19;20121;-78
2022/07/01 15:45:24;;;;;;;1.13;1.05;;;23.40;51.50;;;21.09;54.66;101308.97;12226691;19;20022;-79
2022/07/01 15:49:29;;;;;;;0.77;0.75;;;23.00;51.40;;;21.22;54.66;101340.53;12225989;19;20034;-78
2022/07/01 15:53:30;;;;;;;1.30;1.10;;;23.00;51.50;;;20.89;54.67;101275.38;12222730;19;20014;-77
2022/07/01 15:57:32;;;;;;;0.90;0.90;;;23.00;51.50;;;21.00;54.96;101293.84;12227060;19;20101;-78
2022/07/01 16:01:34;;;;;;;1.23;1.00;;;22.90;51.70;;;21.28;55.02;101349.78;12218938;19;20014;-77
2022/07/01 16:05:37;;;;;;;1.38;1.20;;;22.90;51.70;;;21.08;55.11;101322.38;12216253;19;20010;-83
2022/07/01 16:09:41;;;;;;;1.00;1.00;;;23.00;51.80;;;21.17;54.94;101335.66;12229655;19;20019;-79
2022/07/01 16:13:49;;;;;;;1.10;1.00;;;22.90;51.70;;;21.28;55.27;101355.94;12212418;19;20051;-78
2022/07/01 16:17:50;;;;;;;1.10;1.10;;;22.90;51.70;;;21.17;55.08;101338.31;12225187;19;20018;-80
2022/07/01 16:21:53;;;;;;;0.90;0.90;;;23.00;51.70;;;21.18;54.85;101344.47;12225918;19;20030;-79
2022/07/01 16:25:56;;;;;;;1.00;1.00;;;22.90;51.40;;;21.17;54.68;101342.78;12231959;19;20015;-77
2022/07/01 16:29:58;;;;;;;1.27;1.17;;;22.90;51.30;;;21.12;54.54;101355.66;12229873;19;20114;-78
2022/07/01 16:34:00;;;;;;;1.00;1.00;;;22.90;51.30;;;21.15;55.04;101355.38;12228856;19;20117;-79
2022/07/01 16:38:02;;;;;;;1.13;1.08;;;22.90;51.00;;;21.12;54.86;101369.78;12226916;19;20740;-79
2022/07/01 16:42:15;;;;;;;1.05;1.05;;;22.90;51.10;;;21.14;54.98;101386.41;12229068;19;20522;-80